createdAt,value
2022-11-02T00:05:50.758Z,100976.25
2022-11-02T00:11:54.155Z,100974.69
2022-11-02T00:24:24.903Z,100966.69
2022-11-02T00:30:27.968Z,100964.47
2022-11-02T00:36:31.549Z,100957.03
2022-11-02T00:42:34.532Z,100955.28
2022-11-02T00:48:36.921Z,100947.63
2022-11-02T00:54:40.103Z,100932.81
2022-11-02T01:00:42.477Z,100938.56
2022-11-02T01:06:45.943Z,100932.00
2022-11-02T01:12:48.372Z,100922.78
2022-11-02T01:18:53.629Z,100926.88
2022-11-02T01:24:55.896Z,100916.25
2022-11-02T01:30:59.246Z,100916.59
2022-11-02T01:37:02.132Z,100904.84
2022-11-02T01:43:22.607Z,100905.13
2022-11-02T01:49:26.153Z,100877.56
2022-11-02T01:55:34.248Z,100895.06
2022-11-02T02:01:36.482Z,100890.44
2022-11-02T02:07:41.301Z,100881.53
2022-11-02T02:13:43.325Z,100877.63
2022-11-02T02:20:00.594Z,100877.19
2022-11-02T02:26:11.764Z,100864.34
2022-11-02T02:32:14.600Z,100867.31
2022-11-02T02:38:34.555Z,100869.66
2022-11-02T02:44:39.017Z,100859.47
2022-11-02T02:50:48.488Z,100855.53
2022-11-02T02:56:57.385Z,100852.81
2022-11-02T03:03:05.906Z,100838.75
2022-11-02T03:09:21.189Z,100840.59
2022-11-02T03:15:35.521Z,100857.38
2022-11-02T03:21:43.832Z,100852.56
2022-11-02T03:28:33.201Z,100864.41
2022-11-02T03:34:47.061Z,100855.22
2022-11-02T03:40:58.924Z,100851.88
2022-11-02T03:47:04.172Z,100855.59
2022-11-02T03:53:12.811Z,100856.25
2022-11-02T03:59:17.279Z,100863.34
2022-11-02T04:05:28.456Z,100845.25
2022-11-02T04:11:50.256Z,100852.06
2022-11-02T04:18:12.092Z,100844.44
2022-11-02T04:24:35.230Z,100830.84
2022-11-02T04:30:37.307Z,100834.06
2022-11-02T04:36:41.223Z,100836.69
2022-11-02T04:42:48.082Z,100834.78
2022-11-02T04:48:51.595Z,100825.09
2022-11-02T04:54:54.006Z,100827.13
2022-11-02T05:07:40.440Z,100832.66
2022-11-02T05:13:44.743Z,100830.81
2022-11-02T13:44:41.157Z,100628.59
2022-11-02T13:50:49.221Z,100625.09
2022-11-02T13:56:55.288Z,100627.00
2022-11-02T14:02:59.963Z,100636.16
2022-11-02T14:09:05.295Z,100631.47
2022-11-02T14:15:14.522Z,100632.94
2022-11-02T14:21:44.790Z,100638.19
2022-11-02T14:27:47.194Z,100625.78
2022-11-02T14:33:59.619Z,100631.09
2022-11-02T14:40:08.214Z,100624.81
2022-11-02T14:46:48.921Z,100632.34
2022-11-02T14:53:05.676Z,100635.94
2022-11-02T14:59:18.382Z,100636.94
2022-11-02T15:05:28.969Z,100641.72
2022-11-02T15:11:43.009Z,100655.34
2022-11-02T15:17:45.112Z,100668.88
2022-11-02T15:23:57.968Z,100657.84
2022-11-02T15:30:02.361Z,100666.81
2022-11-02T15:36:08.050Z,100671.44
2022-11-02T15:42:29.264Z,100689.84
2022-11-02T15:48:43.049Z,100686.53
2022-11-02T15:55:19.718Z,100702.28
2022-11-02T16:01:27.724Z,100701.66
2022-11-02T16:07:50.308Z,100702.84
2022-11-02T16:14:17.906Z,100720.59
2022-11-02T16:20:35.655Z,100719.59
2022-11-02T16:26:37.661Z,100723.25
2022-11-02T16:32:39.688Z,100722.94
2022-11-02T16:38:59.367Z,100717.69
2022-11-02T16:45:04.457Z,100736.66
2022-11-02T16:51:14.902Z,100735.19
2022-11-02T16:57:23.758Z,100750.38
2022-11-02T17:03:33.309Z,100749.78
2022-11-02T17:09:35.637Z,100748.97
2022-11-02T17:15:41.726Z,100751.47
2022-11-02T17:21:44.541Z,100756.19
2022-11-02T17:27:50.115Z,100746.69
2022-11-02T17:33:58.898Z,100747.72
2022-11-02T17:40:02.974Z,100742.75
2022-11-02T17:46:05.237Z,100749.44
2022-11-02T17:52:13.909Z,100748.16
2022-11-02T17:58:17.871Z,100749.47
2022-11-02T18:04:22.004Z,100749.72
2022-11-02T18:10:28.918Z,100747.81
2022-11-02T18:16:32.231Z,100762.00
2022-11-02T18:22:42.195Z,100761.66
2022-11-02T18:28:46.417Z,100770.56
2022-11-02T18:34:48.368Z,100772.47
2022-11-02T18:40:51.236Z,100777.28
2022-11-02T18:46:56.884Z,100786.22
2022-11-02T18:52:59.491Z,100789.81
2022-11-02T18:59:04.450Z,100805.28
2022-11-02T19:05:26.993Z,100820.47
2022-11-02T19:11:29.194Z,100825.34
2022-11-02T19:17:34.876Z,100841.97
2022-11-02T19:23:36.830Z,100840.22
2022-11-02T19:29:39.073Z,100848.78
2022-11-02T19:35:41.543Z,100857.53
2022-11-02T19:41:43.940Z,100860.50
2022-11-02T19:47:45.999Z,100865.84
2022-11-02T19:53:50.744Z,100875.59
2022-11-02T19:59:55.889Z,100881.59
2022-11-02T20:06:02.367Z,100882.22
2022-11-02T20:12:10.662Z,100886.56
2022-11-02T20:18:19.360Z,100884.38
2022-11-02T20:24:21.907Z,100897.22
2022-11-02T20:30:25.313Z,100903.56
2022-11-02T20:36:28.052Z,100903.69
2022-11-02T20:42:31.228Z,100913.44
2022-11-02T20:48:33.383Z,100905.66
2022-11-02T20:54:39.062Z,100911.63
2022-11-02T21:00:42.484Z,100921.22
2022-11-02T21:06:44.895Z,100924.78
2022-11-02T21:13:05.637Z,100924.13
2022-11-02T21:19:07.885Z,100933.41
2022-11-02T21:25:10.649Z,100931.13
2022-11-02T21:31:18.760Z,100925.09
2022-11-02T21:37:20.705Z,100927.63
2022-11-02T21:43:23.214Z,100929.00
2022-11-02T21:49:25.192Z,100926.22
2022-11-02T21:55:27.545Z,100924.19
2022-11-02T22:01:48.642Z,100924.41
2022-11-02T22:08:12.094Z,100927.38
2022-11-02T22:14:14.353Z,100950.03
2022-11-02T22:20:18.536Z,100959.38
2022-11-02T22:26:23.421Z,100967.13
2022-11-02T22:32:25.702Z,100969.78
2022-11-02T22:38:47.598Z,100967.25
2022-11-02T22:44:49.533Z,100967.03
2022-11-02T22:50:52.524Z,100963.47
2022-11-02T22:56:56.055Z,100987.06
2022-11-02T23:02:58.122Z,100995.00
2022-11-02T23:09:00.762Z,101005.72
2022-11-02T23:15:03.974Z,101020.50
2022-11-02T23:21:08.661Z,101028.50
2022-11-02T23:27:10.956Z,101034.78
2022-11-02T23:33:15.721Z,101046.84
2022-11-02T23:39:36.314Z,101066.25
2022-11-02T23:45:39.357Z,101061.88
2022-11-02T23:51:59.959Z,101062.53
2022-11-02T23:58:05.253Z,101072.31
